Time;durP1;ratioP1;P1;durP2;ratioP2;P2;SDS_P1;SDS_P2;PMS_P1;PMS_P2;Temp;Humidity;BMP_temperature;BMP_pressure;BME280_temperature;BME280_humidity;BME280_pressure;Samples;Min_cycle;Max_cycle;Signal;HPM_P1;HPM_P2
2022/04/27 00:01:58;;;;;;;4.15;2.20;;;;;;;6.97;56.71;101200.25;6231260;22;20012;-77
2022/04/27 00:04:24;;;;;;;1.92;1.70;;;;;;;6.92;56.27;101201.97;6278444;22;20087;-75
2022/04/27 00:06:49;;;;;;;3.00;1.90;;;;;;;6.90;57.27;101204.09;6234232;23;20072;-76
2022/04/27 00:09:15;;;;;;;3.30;2.22;;;;;;;6.95;57.19;101224.13;6231438;22;20007;-75
2022/04/27 00:11:41;;;;;;;2.53;1.77;;;;;;;6.82;56.43;101206.03;6250187;23;20004;-76
2022/04/27 00:14:08;;;;;;;2.10;1.52;;;;;;;6.81;56.82;101200.81;6206644;22;20008;-76
2022/04/27 00:16:34;;;;;;;2.05;1.40;;;;;;;6.85;56.89;101217.50;6281718;22;20089;-76
2022/04/27 00:18:59;;;;;;;2.05;1.60;;;;;;;6.75;57.66;101207.16;6283009;22;20007;-76
2022/04/27 00:21:24;;;;;;;2.33;1.85;;;;;;;6.73;56.92;101215.53;6282467;22;20007;-77
2022/04/27 00:23:50;;;;;;;3.80;1.67;;;;;;;6.78;57.76;101229.28;6230745;22;20004;-75
2022/04/27 00:26:15;;;;;;;2.95;1.90;;;;;;;6.75;57.72;101224.28;6280459;22;20079;-77
2022/04/27 00:28:41;;;;;;;3.30;2.08;;;;;;;6.62;58.34;101214.34;6251113;23;20060;-77
2022/04/27 00:31:06;;;;;;;2.97;2.03;;;;;;;6.67;58.32;101235.41;6256370;22;20441;-77
2022/04/27 00:33:32;;;;;;;5.10;2.40;;;;;;;6.62;58.89;101232.53;6284798;22;20038;-76
2022/04/27 00:35:57;;;;;;;2.53;2.00;;;;;;;6.50;58.58;101226.13;6253532;22;20004;-77
2022/04/27 00:38:23;;;;;;;3.22;2.22;;;;;;;6.41;58.51;101223.69;6284419;22;20010;-79
2022/04/27 00:40:48;;;;;;;3.00;2.22;;;;;;;6.38;58.81;101232.28;6226835;23;20091;-75
2022/04/27 00:43:14;;;;;;;2.90;2.15;;;;;;;6.32;59.10;101225.00;6248721;23;20071;-75
2022/04/27 00:45:40;;;;;;;3.42;2.38;;;;;;;6.25;58.83;101232.34;6275084;22;20414;-75
2022/04/27 00:48:09;;;;;;;4.15;2.33;;;;;;;6.15;59.10;101226.56;6227371;22;20000;-75
2022/04/27 00:50:35;;;;;;;2.42;2.03;;;;;;;6.14;59.52;101233.06;6252075;23;20035;-75
2022/04/27 00:53:03;;;;;;;4.25;2.25;;;;;;;6.09;59.00;101234.53;6281357;22;20000;-76
2022/04/27 00:55:30;;;;;;;2.20;1.65;;;;;;;5.92;59.14;101214.31;6250801;23;20012;-75
2022/04/27 00:57:56;;;;;;;2.22;1.70;;;;;;;5.91;59.26;101223.50;6254445;22;20125;-75
2022/04/27 01:00:22;;;;;;;2.47;1.38;;;;;;;5.97;59.32;101244.38;6257084;22;20091;-75
2022/04/27 01:02:48;;;;;;;2.53;1.50;;;;;;;5.85;59.88;101225.19;6256108;22;20087;-73
2022/04/27 01:05:13;;;;;;;3.45;1.80;;;;;;;5.94;59.65;101248.34;6251590;23;20095;-75
2022/04/27 01:07:40;;;;;;;2.60;1.45;;;;;;;5.77;59.79;101218.13;6267504;22;20028;-74
2022/04/27 01:10:08;;;;;;;1.73;1.42;;;;;;;5.91;59.71;101245.22;6224546;23;20360;-75
2022/04/27 01:12:36;;;;;;;2.05;1.55;;;;;;;5.84;59.86;101244.41;6242318;23;20015;-75
2022/04/27 01:15:03;;;;;;;1.98;1.52;;;;;;;5.85;59.81;101243.38;6278669;22;20030;-75
2022/04/27 01:17:36;;;;;;;1.42;1.17;;;;;;;5.70;59.82;101230.88;6250780;22;20403;-76
2022/04/27 01:20:02;;;;;;;2.08;1.45;;;;;;;5.73;60.06;101238.59;6226331;22;20015;-74
2022/04/27 01:22:28;;;;;;;3.03;1.55;;;;;;;5.77;60.61;101250.69;6256747;22;20008;-75
2022/04/27 01:24:56;;;;;;;2.13;1.35;;;;;;;5.79;60.97;101257.81;6252146;22;20457;-75
2022/04/27 01:27:29;;;;;;;2.42;1.75;;;;;;;5.77;60.89;101253.41;6249135;23;20012;-69
2022/04/27 01:29:55;;;;;;;2.28;1.70;;;;;;;5.75;61.86;101247.38;6201093;22;20041;-68
2022/04/27 01:32:20;;;;;;;2.42;1.80;;;;;;;5.68;61.92;101233.00;6270202;22;20055;-71
2022/04/27 01:34:46;;;;;;;2.33;1.50;;;;;;;5.75;62.10;101250.09;6241771;22;20093;-70
2022/04/27 01:39:56;;;;;;;1.65;1.55;;;;;;;5.72;62.24;101250.53;6276013;22;20069;-71
2022/04/27 01:42:22;;;;;;;3.45;1.50;;;;;;;5.74;61.92;101262.00;6250183;22;20012;-71
2022/04/27 01:44:47;;;;;;;1.77;1.42;;;;;;;5.75;62.39;101265.53;6271392;22;20008;-70
2022/04/27 01:47:13;;;;;;;5.47;2.00;;;;;;;5.72;62.52;101264.09;6198869;22;20008;-71
2022/04/27 01:49:38;;;;;;;2.85;1.80;;;;;;;5.71;62.91;101265.13;6272038;22;20015;-69
2022/04/27 01:54:48;;;;;;;1.50;1.20;;;;;;;5.62;63.05;101263.69;6252865;22;20023;-71
2022/04/27 01:57:14;;;;;;;3.65;1.50;;;;;;;5.60;63.10;101265.78;6270125;22;20094;-70
2022/04/27 01:59:41;;;;;;;1.75;1.50;;;;;;;5.57;63.27;101277.06;6274119;22;20030;-71
2022/04/27 02:02:08;;;;;;;2.33;1.75;;;;;;;5.50;63.93;101270.81;6277063;22;20061;-70
2022/04/27 02:04:34;;;;;;;2.20;1.67;;;;;;;5.51;63.69;101276.03;6270526;22;20091;-70
2022/04/27 02:06:59;;;;;;;2.65;1.55;;;;;;;5.50;64.14;101282.50;6257841;22;20116;-70
2022/04/27 02:09:26;;;;;;;1.95;1.08;;;;;;;5.41;63.88;101273.72;6269784;22;20068;-69
2022/04/27 02:11:53;;;;;;;1.33;1.10;;;;;;;5.39;63.79;101280.44;6222057;22;19999;-72
2022/04/27 02:14:18;;;;;;;1.35;1.23;;;;;;;5.39;64.07;101275.00;6220101;23;20176;-72
2022/04/27 02:16:44;;;;;;;3.25;1.50;;;;;;;5.34;64.67;101272.91;6240206;23;20414;-73
2022/04/27 02:19:09;;;;;;;1.75;1.30;;;;;;;5.33;64.87;101276.69;6257844;22;20008;-72
2022/04/27 02:21:35;;;;;;;1.77;1.45;;;;;;;5.33;64.89;101282.13;6202422;22;20007;-71
2022/04/27 02:24:00;;;;;;;1.70;1.33;;;;;;;5.29;64.94;101283.56;6279153;22;20004;-72
2022/04/27 02:26:26;;;;;;;1.83;1.42;;;;;;;5.29;64.74;101280.84;6276436;22;20035;-72
2022/04/27 02:28:51;;;;;;;1.50;1.13;;;;;;;5.29;65.27;101290.88;6277739;22;20051;-72
2022/04/27 02:31:17;;;;;;;1.70;1.35;;;;;;;5.25;65.50;101287.75;6279033;22;20011;-73
2022/04/27 02:33:42;;;;;;;5.25;1.52;;;;;;;5.19;65.15;101281.28;6226578;22;20019;-73
2022/04/27 02:36:07;;;;;;;4.32;1.55;;;;;;;5.19;65.92;101286.69;6278727;22;20082;-72
2022/04/27 02:38:33;;;;;;;6.60;1.50;;;;;;;5.19;66.38;101291.28;6254949;22;20004;-73
2022/04/27 02:40:58;;;;;;;2.15;1.60;;;;;;;5.21;65.96;101294.63;6274419;22;20007;-72
2022/04/27 02:43:24;;;;;;;3.47;2.10;;;;;;;5.22;66.16;101285.44;6263146;22;20012;-73
2022/04/27 02:45:49;;;;;;;4.22;1.63;;;;;;;5.22;66.32;101285.44;6267968;22;20505;-72
2022/04/27 02:48:15;;;;;;;5.53;2.10;;;;;;;5.23;66.70;101287.13;6250463;22;20004;-69
2022/04/27 02:53:25;;;;;;;1.98;1.60;;;;;;;5.53;67.20;101292.09;6267840;22;20023;-68
2022/04/27 02:55:50;;;;;;;2.55;1.80;;;;;;;5.77;66.86;101291.41;6246827;22;20004;-74
2022/04/27 02:58:16;;;;;;;2.97;1.92;;;;;;;5.93;66.27;101281.16;6272484;22;20027;-74
2022/04/27 03:00:44;;;;;;;3.10;2.25;;;;;;;6.06;65.92;101289.28;6204310;23;20034;-72
2022/04/27 03:03:10;;;;;;;2.78;2.08;;;;;;;6.12;66.00;101287.59;6275187;22;20019;-70
2022/04/27 03:05:36;;;;;;;3.40;2.10;;;;;;;6.13;66.17;101288.41;6246411;23;20000;-69
2022/04/27 03:08:01;;;;;;;2.63;2.13;;;;;;;6.13;66.46;101293.84;6224701;22;20015;-70
2022/04/27 03:10:27;;;;;;;4.47;1.95;;;;;;;6.08;66.27;101284.44;6201369;22;20027;-70
2022/04/27 03:12:52;;;;;;;6.88;2.42;;;;;;;5.99;66.59;101296.59;6279625;22;20015;-71
2022/04/27 03:15:18;;;;;;;5.35;2.83;;;;;;;5.83;67.44;101297.06;6224357;22;20003;-70
2022/04/27 03:17:43;;;;;;;3.80;2.22;;;;;;;5.70;67.42;101298.75;6271496;22;20012;-73
2022/04/27 03:20:09;;;;;;;7.75;2.80;;;;;;;5.59;67.65;101302.09;6200491;22;20030;-71
2022/04/27 03:22:42;;;;;;;4.22;2.63;;;;;;;5.42;67.88;101297.13;6246129;22;20004;-71
2022/04/27 03:25:18;;;;;;;3.90;2.55;;;;;;;5.26;68.33;101292.13;6275683;22;20007;-73
2022/04/27 03:27:46;;;;;;;7.45;3.25;;;;;;;5.20;69.04;101301.09;6249475;22;20012;-72
2022/04/27 03:30:19;;;;;;;5.45;3.13;;;;;;;4.71;69.81;101236.22;6271282;22;20095;-73
2022/04/27 03:32:44;;;;;;;3.58;2.85;;;;;;;4.85;69.27;101272.31;6264455;22;20004;-73
2022/04/27 03:35:23;;;;;;;5.13;3.55;;;;;;;4.98;69.81;101306.72;6249002;22;20103;-72
2022/04/27 03:37:51;;;;;;;3.95;2.35;;;;;;;4.70;70.15;101261.66;6278864;22;20003;-72
2022/04/27 03:40:22;;;;;;;6.68;2.65;;;;;;;4.77;70.19;101280.63;6247291;23;20024;-71
2022/04/27 03:42:48;;;;;;;5.22;3.20;;;;;;;4.67;70.30;101275.63;6249005;22;20012;-71
2022/04/27 03:45:14;;;;;;;3.65;2.88;;;;;;;4.80;70.55;101298.34;6256233;22;20015;-72
2022/04/27 03:47:39;;;;;;;4.25;3.10;;;;;;;4.69;70.71;101276.25;6238956;23;20012;-71
2022/04/27 03:50:05;;;;;;;4.15;3.20;;;;;;;4.76;70.77;101270.84;6198567;22;20086;-71
2022/04/27 03:52:31;;;;;;;7.93;3.30;;;;;;;4.77;70.81;101268.97;6252160;22;20008;-71
2022/04/27 03:55:05;;;;;;;5.68;3.10;;;;;;;4.92;70.36;101283.16;6280680;22;20003;-71
2022/04/27 03:57:31;;;;;;;4.72;3.35;;;;;;;5.02;70.73;101294.44;6272857;22;20427;-70
2022/04/27 03:59:56;;;;;;;4.70;3.97;;;;;;;4.95;71.30;101279.19;6249260;22;20091;-71
2022/04/27 04:02:22;;;;;;;5.13;4.25;;;;;;;4.93;71.57;101286.69;6270867;22;20106;-71
2022/04/27 04:04:47;;;;;;;9.38;4.10;;;;;;;4.84;71.42;101294.19;6239606;23;20000;-70
2022/04/27 04:07:14;;;;;;;6.82;4.30;;;;;;;4.84;71.68;101299.63;6222127;23;20007;-72
2022/04/27 04:09:39;;;;;;;4.05;3.00;;;;;;;4.82;71.68;101293.56;6240020;23;20592;-71
2022/04/27 04:12:16;;;;;;;;;;;;;;;;;;;;;
2022/04/27 04:14:42;;;;;;;4.20;2.92;;;;;;;4.93;71.86;101308.38;6276676;22;20478;-71
2022/04/27 04:17:07;;;;;;;4.22;3.47;;;;;;;4.88;71.45;101307.13;6270749;22;20038;-71
2022/04/27 04:19:35;;;;;;;8.25;3.00;;;;;;;4.76;71.49;101294.38;6266376;22;20012;-71
2022/04/27 04:22:43;;;;;;;4.30;2.85;;;;;;;4.76;72.28;101306.06;6247188;23;20461;-71
2022/04/27 04:30:37;;;;;;;4.43;2.90;;;;;;;4.83;72.60;101319.63;6278817;22;20022;-70
2022/04/27 04:33:03;;;;;;;3.72;2.47;;;;;;;4.79;71.83;101304.81;6269453;22;20015;-71
2022/04/27 04:35:40;;;;;;;3.20;2.50;;;;;;;4.98;71.88;101317.56;6263255;22;20007;-71
2022/04/27 04:38:08;;;;;;;5.22;2.80;;;;;;;4.92;72.19;101307.56;6263199;22;20065;-72
2022/04/27 04:40:37;;;;;;;4.50;3.20;;;;;;;4.76;71.67;101286.25;6227902;22;20619;-72
2022/04/27 04:43:11;;;;;;;3.88;2.55;;;;;;;4.71;72.20;101303.94;6267666;22;20095;-70
2022/04/27 04:45:37;;;;;;;;;;;;;;;4.78;72.14;101338.38;6247963;23;20012;-72
2022/04/27 04:48:12;;;;;;;4.03;2.58;;;;;;;4.68;72.35;101336.88;6269147;22;20198;-71
2022/04/27 04:50:38;;;;;;;4.28;2.80;;;;;;;4.60;72.48;101325.41;6217929;23;20008;-71
2022/04/27 04:53:06;;;;;;;7.25;3.20;;;;;;;4.51;72.34;101316.63;6250562;22;20034;-71
2022/04/27 04:55:32;;;;;;;4.47;2.95;;;;;;;4.62;72.93;101345.84;6249874;22;20007;-71
2022/04/27 04:57:57;;;;;;;8.20;3.28;;;;;;;4.60;73.16;101342.50;6270118;22;20028;-71
2022/04/27 05:00:23;;;;;;;3.55;2.80;;;;;;;4.51;73.43;101339.16;6267807;22;20019;-71
2022/04/27 05:02:49;;;;;;;4.63;2.90;;;;;;;4.53;73.50;101345.19;6245209;22;20074;-71
2022/04/27 05:05:17;;;;;;;3.42;2.60;;;;;;;4.44;73.98;101332.00;6237649;22;20008;-72
2022/04/27 05:07:43;;;;;;;5.25;3.50;;;;;;;4.46;73.86;101335.38;6247668;23;20040;-71
2022/04/27 05:10:09;;;;;;;4.35;2.65;;;;;;;4.54;73.89;101344.16;6276787;22;20003;-72
2022/04/27 05:12:35;;;;;;;3.35;2.25;;;;;;;4.54;73.35;101348.72;6246397;23;20007;-71
2022/04/27 05:15:01;;;;;;;4.35;2.55;;;;;;;4.52;73.85;101350.81;6245424;22;20035;-71
2022/04/27 05:17:26;;;;;;;3.67;2.50;;;;;;;4.48;73.74;101341.41;6243305;23;20058;-70
2022/04/27 05:19:52;;;;;;;3.92;2.40;;;;;;;4.54;73.60;101354.13;6266718;22;20008;-70
2022/04/27 05:22:18;;;;;;;3.35;2.22;;;;;;;4.57;73.66;101363.75;6261432;22;20050;-71
2022/04/27 05:24:44;;;;;;;2.88;2.33;;;;;;;4.59;73.53;101367.09;6254628;22;20325;-72
2022/04/27 05:27:09;;;;;;;4.55;2.92;;;;;;;4.56;74.04;101352.06;6223793;23;20024;-73
2022/04/27 05:32:27;;;;;;;4.22;2.50;;;;;;;4.48;74.30;101338.69;6294985;22;20022;-71
2022/04/27 05:34:53;;;;;;;6.25;2.75;;;;;;;4.55;74.03;101340.38;6262581;22;20008;-71
2022/04/27 05:37:20;;;;;;;3.30;2.20;;;;;;;4.58;74.05;101343.75;6284062;22;20000;-71
2022/04/27 05:39:46;;;;;;;3.78;2.78;;;;;;;4.78;74.27;101360.06;6261821;22;20074;-71
2022/04/27 05:42:11;;;;;;;4.28;2.67;;;;;;;4.70;73.96;101345.66;6251833;22;20377;-71
2022/04/27 05:44:40;;;;;;;3.28;2.25;;;;;;;4.92;74.17;101378.03;6251805;22;19999;-71
2022/04/27 05:47:05;;;;;;;4.13;2.75;;;;;;;4.95;73.58;101366.78;6249575;22;20353;-72
2022/04/27 05:49:33;;;;;;;2.58;2.15;;;;;;;4.95;73.25;101361.34;6199384;22;20007;-72
2022/04/27 05:52:04;;;;;;;4.78;2.40;;;;;;;5.03;73.45;101366.56;6247687;22;20321;-71
2022/04/27 05:54:32;;;;;;;3.55;2.80;;;;;;;5.17;73.38;101380.13;6272890;22;20062;-72
2022/04/27 05:57:11;;;;;;;3.83;2.60;;;;;;;5.17;73.49;101380.13;6261945;22;20019;-71
2022/04/27 05:59:49;;;;;;;4.53;2.53;;;;;;;4.92;73.55;101329.25;6213436;22;20055;-75
2022/04/27 06:02:15;;;;;;;6.30;2.83;;;;;;;5.35;73.33;101387.69;6248198;23;20397;-74
2022/04/27 06:04:42;;;;;;;4.65;2.50;;;;;;;5.22;73.42;101361.38;6244444;23;20012;-72
2022/04/27 06:07:17;;;;;;;6.10;3.03;;;;;;;5.31;72.92;101379.09;6220139;23;20004;-74
2022/04/27 06:09:42;;;;;;;3.97;2.85;;;;;;;5.60;73.02;101401.44;6246992;23;20067;-72
2022/04/27 06:12:36;;;;;;;4.10;2.60;;;;;;;5.55;73.24;101382.25;6246111;23;20490;-74
2022/04/27 06:15:17;;;;;;;4.88;2.88;;;;;;;5.69;72.86;101389.31;6247490;23;20087;-73
2022/04/27 06:17:50;;;;;;;4.03;2.53;;;;;;;5.98;72.33;101397.28;6222760;23;20012;-72
2022/04/27 06:20:16;;;;;;;5.43;2.97;;;;;;;5.97;72.37;101373.84;6220003;23;20008;-72
2022/04/27 06:22:42;;;;;;;4.28;2.67;;;;;;;6.23;72.31;101402.84;6218637;23;20027;-72
2022/04/27 06:25:13;;;;;;;3.25;2.10;;;;;;;6.26;72.31;101410.56;6218683;23;20067;-71
2022/04/27 06:27:40;;;;;;;4.60;2.60;;;;;;;6.39;71.68;101420.56;6217901;23;20449;-71
2022/04/27 06:30:35;;;;;;;7.15;2.42;;;;;;;6.53;72.20;101426.81;6217197;23;20083;-72
2022/04/27 06:33:12;;;;;;;;;;;;;;;6.65;71.43;101425.09;6221498;23;20004;-72
2022/04/27 06:35:50;;;;;;;3.80;1.83;;;;;;;6.79;71.73;101429.41;6219773;23;19912;-74
2022/04/27 06:38:18;;;;;;;6.60;2.20;;;;;;;6.93;71.36;101421.19;6219283;23;20342;-70
2022/04/27 06:40:44;;;;;;;3.58;1.83;;;;;;;7.05;70.73;101430.31;6220817;23;20008;-69
2022/04/27 06:43:09;;;;;;;4.75;2.10;;;;;;;7.19;70.10;101427.53;6216808;23;20018;-70
2022/04/27 06:45:40;;;;;;;2.05;1.70;;;;;;;7.37;70.34;101422.16;6242488;23;20008;-70
2022/04/27 06:48:13;;;;;;;1.77;1.65;;;;;;;7.56;69.77;101423.06;6196007;23;20347;-70
2022/04/27 06:50:39;;;;;;;2.13;1.42;;;;;;;7.81;69.64;101438.56;6220051;23;20011;-71
2022/04/27 06:53:04;;;;;;;4.03;1.83;;;;;;;7.85;68.78;101420.75;6246255;23;20441;-69
2022/04/27 06:55:33;;;;;;;4.13;1.80;;;;;;;8.08;69.21;101436.44;6220292;23;20458;-72
2022/04/27 06:57:59;;;;;;;4.75;2.00;;;;;;;8.22;68.42;101434.44;6220654;22;19996;-70
2022/04/27 07:00:25;;;;;;;4.60;1.70;;;;;;;8.30;68.28;101425.13;6247003;23;20338;-69
2022/04/27 07:02:54;;;;;;;2.03;1.50;;;;;;;8.66;67.47;101437.09;6165481;23;20016;-70
2022/04/27 07:05:20;;;;;;;3.70;1.85;;;;;;;8.62;65.88;101417.66;6213682;23;20016;-70
2022/04/27 07:07:48;;;;;;;2.20;1.58;;;;;;;8.80;65.39;101452.25;6238703;23;20020;-70
2022/04/27 07:10:15;;;;;;;5.07;1.80;;;;;;;8.82;65.43;101450.13;6245437;23;20008;-70
2022/04/27 07:12:42;;;;;;;4.07;1.45;;;;;;;8.99;65.18;101452.22;6221061;23;20385;-70
2022/04/27 07:15:14;;;;;;;10.05;2.20;;;;;;;9.16;64.70;101439.59;6219272;23;20009;-71
2022/04/27 07:17:46;;;;;;;1.60;1.50;;;;;;;9.64;63.06;101453.38;6211963;23;20032;-71
2022/04/27 07:20:11;;;;;;;2.30;1.45;;;;;;;10.02;62.32;101435.72;6218793;23;20007;-71
2022/04/27 07:22:37;;;;;;;3.80;1.60;;;;;;;10.76;61.29;101478.94;6166604;23;20128;-70
2022/04/27 07:25:04;;;;;;;3.90;1.27;;;;;;;10.95;59.36;101461.28;6221380;23;20004;-71
2022/04/27 07:27:31;;;;;;;3.38;1.27;;;;;;;11.41;58.54;101480.50;6213260;23;20008;-71
2022/04/27 07:29:58;;;;;;;3.92;1.08;;;;;;;11.51;57.38;101446.97;6192507;23;20012;-71
2022/04/27 07:32:29;;;;;;;2.00;1.08;;;;;;;11.70;56.31;101448.41;6222491;23;20027;-71
2022/04/27 07:35:45;;;;;;;4.78;1.15;;;;;;;12.00;54.65;101471.94;6168013;23;20466;-72
2022/04/27 07:38:11;;;;;;;2.47;1.20;;;;;;;12.14;54.45;101474.34;6210113;23;20407;-71
2022/04/27 07:41:05;;;;;;;;;;;;;;;;;;;;;
2022/04/27 07:43:47;;;;;;;1.90;1.25;;;;;;;12.19;53.50;101485.38;6210979;23;20056;-72
2022/04/27 07:46:19;;;;;;;1.23;1.02;;;;;;;12.21;53.21;101499.69;6197618;23;20043;-71
2022/04/27 07:48:45;;;;;;;3.15;1.15;;;;;;;12.04;52.61;101478.56;6244825;23;20088;-71
2022/04/27 07:51:11;;;;;;;4.78;0.95;;;;;;;11.96;52.65;101487.22;6172359;23;20004;-71
2022/04/27 07:53:37;;;;;;;2.58;1.08;;;;;;;11.90;52.54;101493.69;6165865;23;20016;-72
2022/04/27 07:56:05;;;;;;;1.08;0.98;;;;;;;12.13;52.69;101513.78;6220061;23;20016;-72
2022/04/27 07:58:31;;;;;;;2.28;0.90;;;;;;;12.19;51.48;101513.63;6222527;22;20023;-73
2022/04/27 08:01:00;;;;;;;2.60;0.75;;;;;;;12.34;52.01;101509.47;6247144;23;20004;-73
2022/04/27 08:03:25;;;;;;;1.52;0.95;;;;;;;12.42;51.37;101497.25;6247465;23;20008;-71
2022/04/27 08:05:51;;;;;;;1.33;1.00;;;;;;;12.65;51.20;101516.22;6196147;23;20019;-70
2022/04/27 08:08:26;;;;;;;3.42;0.90;;;;;;;12.69;50.54;101484.44;6250187;23;20404;-71
2022/04/27 08:10:56;;;;;;;1.83;0.82;;;;;;;12.81;49.74;101499.97;6249897;23;20438;-72
2022/04/27 08:13:21;;;;;;;1.55;0.90;;;;;;;12.98;49.74;101517.22;6222924;23;19996;-72
2022/04/27 08:15:49;;;;;;;6.38;0.75;;;;;;;12.88;48.79;101484.13;6249146;23;20011;-71
2022/04/27 08:18:27;;;;;;;;;;;;;;;;;;;;;
2022/04/27 08:21:14;;;;;;;4.13;1.05;;;;;;;13.00;46.91;101500.47;6247737;23;20108;-71
2022/04/27 08:23:40;;;;;;;4.10;0.85;;;;;;;13.07;46.53;101510.19;6249111;23;20038;-70
2022/04/27 08:26:07;;;;;;;2.40;0.90;;;;;;;13.02;46.13;101510.09;6248609;23;20023;-70
2022/04/27 08:28:33;;;;;;;1.50;0.75;;;;;;;13.08;45.72;101514.59;6250449;23;20007;-72
2022/04/27 08:30:59;;;;;;;0.77;0.60;;;;;;;13.16;45.62;101512.47;6248101;23;20015;-71
2022/04/27 08:34:04;;;;;;;;;;;;;;;;;;;;;
2022/04/27 08:36:43;;;;;;;;;;;;;;;;;;;;;
2022/04/27 08:39:52;;;;;;;;;;;;;;;;;;;;;
2022/04/27 08:43:16;;;;;;;;;;;;;;;;;;;;;
2022/04/27 08:46:24;;;;;;;2.20;0.75;;;;;;;12.69;44.79;101478.97;6157184;23;20093;-75
2022/04/27 08:48:54;;;;;;;2.20;0.73;;;;;;;12.86;44.34;101486.28;6148560;23;20020;-70
2022/04/27 08:51:29;;;;;;;5.22;0.90;;;;;;;13.23;43.79;101532.34;6131398;23;20028;-71
2022/04/27 08:53:54;;;;;;;1.50;0.70;;;;;;;13.14;44.22;101501.75;6194528;23;20058;-70
2022/04/27 08:56:23;;;;;;;1.73;0.75;;;;;;;13.23;44.20;101522.16;6198218;23;20058;-71
2022/04/27 08:58:49;;;;;;;3.22;1.10;;;;;;;13.20;43.71;101525.44;6197614;22;20118;-69
2022/04/27 09:01:15;;;;;;;1.35;0.70;;;;;;;13.05;43.74;101520.59;6221641;23;20431;-70
2022/04/27 09:03:41;;;;;;;1.55;0.65;;;;;;;13.26;44.22;101526.31;6190985;23;20008;-70
2022/04/27 09:06:12;;;;;;;4.57;0.98;;;;;;;13.38;43.01;101538.03;6223041;23;20011;-70
2022/04/27 09:08:43;;;;;;;0.60;0.55;;;;;;;13.56;43.40;101536.00;6215109;23;20008;-70
2022/04/27 09:11:26;;;;;;;1.23;0.68;;;;;;;13.75;43.07;101526.28;6218684;23;20616;-71
2022/04/27 09:14:08;;;;;;;2.15;0.93;;;;;;;13.88;41.94;101533.28;6213832;23;20127;-71
2022/04/27 09:22:06;;;;;;;4.25;0.73;;;;;;;13.65;41.90;101537.19;6246802;23;20018;-70
2022/04/27 09:24:49;;;;;;;1.38;0.73;;;;;;;13.86;42.63;101537.41;6237547;23;20126;-70
2022/04/27 09:27:18;;;;;;;1.85;1.10;;;;;;;13.93;41.21;101532.50;6240168;23;20072;-70
2022/04/27 09:29:54;;;;;;;0.88;0.70;;;;;;;14.06;39.87;101529.34;6240308;23;20024;-70
2022/04/27 09:32:20;;;;;;;0.95;0.57;;;;;;;14.09;39.44;101528.81;6240609;23;20019;-70
2022/04/27 09:34:47;;;;;;;1.85;0.50;;;;;;;14.07;37.98;101535.66;6238189;23;20435;-70
2022/04/27 09:37:24;;;;;;;1.33;0.50;;;;;;;14.28;38.16;101542.97;6245837;23;20012;-70
2022/04/27 09:40:12;;;;;;;3.00;0.55;;;;;;;14.94;38.04;101543.69;6219514;23;20012;-70
2022/04/27 09:42:43;;;;;;;1.45;0.60;;;;;;;16.17;36.28;101532.94;6248103;23;20007;-70
2022/04/27 09:45:17;;;;;;;3.33;0.70;;;;;;;17.74;33.28;101544.00;6245986;23;20060;-70
2022/04/27 09:47:57;;;;;;;0.57;0.40;;;;;;;18.98;32.35;101546.47;6219774;23;20005;-69
2022/04/27 09:50:25;;;;;;;0.90;0.52;;;;;;;19.77;31.24;101534.88;6223466;23;20012;-70
2022/04/27 09:52:51;;;;;;;1.00;0.70;;;;;;;20.35;29.85;101530.84;6251859;23;20030;-70
2022/04/27 09:55:17;;;;;;;1.20;0.60;;;;;;;21.09;29.44;101527.22;6251286;23;20008;-70
2022/04/27 09:57:43;;;;;;;1.52;0.40;;;;;;;21.75;28.73;101540.78;6213981;23;20020;-69
2022/04/27 10:00:12;;;;;;;0.68;0.40;;;;;;;22.16;27.12;101538.13;6257483;23;20023;-70
2022/04/27 10:02:40;;;;;;;1.23;0.60;;;;;;;22.22;26.59;101537.66;6261036;23;20060;-72
2022/04/27 10:05:09;;;;;;;1.13;0.65;;;;;;;21.92;27.06;101533.72;6268226;22;20000;-74
2022/04/27 10:07:35;;;;;;;4.07;1.13;;;;;;;21.76;26.99;101528.53;6266502;22;20024;-74
2022/04/27 10:10:04;;;;;;;0.93;0.70;;;;;;;21.36;27.55;101528.31;6262153;22;20031;-74
2022/04/27 10:12:35;;;;;;;1.70;0.90;;;;;;;21.19;27.95;101528.97;6251108;23;20426;-74
2022/04/27 10:15:01;;;;;;;3.10;1.10;;;;;;;21.68;27.37;101537.63;6253424;22;20000;-73
2022/04/27 10:17:28;;;;;;;1.83;0.60;;;;;;;22.18;27.11;101530.28;6226501;23;20487;-73
2022/04/27 10:19:53;;;;;;;1.60;0.93;;;;;;;22.62;26.07;101534.16;6249546;22;20063;-72
2022/04/27 10:22:26;;;;;;;2.40;0.82;;;;;;;22.45;26.61;101524.56;6224236;23;20008;-71
2022/04/27 10:24:51;;;;;;;1.55;1.17;;;;;;;;;;6273522;22;20000;-69
2022/04/27 10:27:21;;;;;;;2.58;1.73;;;;;;;21.51;27.43;101518.81;6247974;23;20026;-73
2022/04/27 10:29:51;;;;;;;2.42;1.15;;;;;;;21.03;27.86;101530.44;6247229;23;20099;-71
2022/04/27 10:32:43;;;;;;;1.95;0.90;;;;;;;20.65;28.62;101528.63;6274239;22;20035;-74
2022/04/27 10:35:11;;;;;;;3.60;1.25;;;;;;;20.44;28.84;101525.41;6248123;22;20534;-71
2022/04/27 10:37:43;;;;;;;2.45;1.15;;;;;;;20.01;29.44;101518.13;6273222;22;20000;-72
2022/04/27 10:40:31;;;;;;;2.95;0.98;;;;;;;19.56;29.29;101517.69;6271752;22;20008;-70
2022/04/27 10:43:06;;;;;;;2.60;1.05;;;;;;;19.22;30.22;101515.16;6249935;22;20439;-73
2022/04/27 10:45:35;;;;;;;2.97;1.00;;;;;;;19.30;29.86;101514.47;6273543;22;20000;-74
2022/04/27 10:48:03;;;;;;;1.75;0.80;;;;;;;19.75;30.42;101516.88;6247315;23;20039;-72
2022/04/27 10:50:33;;;;;;;2.38;0.80;;;;;;;19.74;30.10;101501.34;6246534;22;20004;-71
2022/04/27 10:53:23;;;;;;;2.75;0.88;;;;;;;19.33;29.35;101513.88;6271847;22;20443;-71
2022/04/27 10:55:56;;;;;;;2.30;1.00;;;;;;;19.12;29.90;101519.69;6246746;23;20427;-71
2022/04/27 10:58:37;;;;;;;3.78;0.80;;;;;;;18.93;30.46;101511.34;6272779;22;20015;-70
2022/04/27 11:01:12;;;;;;;1.15;0.63;;;;;;;19.04;31.20;101513.97;6228240;22;20016;-70
2022/04/27 11:03:41;;;;;;;1.80;0.90;;;;;;;18.90;30.65;101511.94;6247512;23;20597;-69
2022/04/27 11:06:13;;;;;;;1.42;1.00;;;;;;;18.67;30.94;101522.72;6219769;23;20015;-70
2022/04/27 11:08:56;;;;;;;2.00;0.98;;;;;;;18.29;30.90;101514.22;6221827;23;20098;-71
2022/04/27 11:11:25;;;;;;;1.42;0.75;;;;;;;18.11;30.85;101523.28;6219414;23;20011;-72
2022/04/27 11:13:51;;;;;;;1.85;0.85;;;;;;;18.03;31.73;101504.50;6222913;23;20026;-72
2022/04/27 11:16:18;;;;;;;0.60;0.60;;;;;;;18.12;31.26;101502.75;6246090;23;20004;-72
2022/04/27 11:18:59;;;;;;;1.85;1.08;;;;;;;18.34;31.29;101496.75;6166824;23;20024;-73
2022/04/27 11:21:30;;;;;;;3.28;0.98;;;;;;;18.39;30.71;101507.75;6215102;23;20011;-72
2022/04/27 11:24:00;;;;;;;1.63;0.90;;;;;;;18.41;30.85;101511.09;6222458;23;20083;-71
2022/04/27 11:26:25;;;;;;;0.60;0.60;;;;;;;18.16;31.05;101492.75;6222173;23;20012;-72
2022/04/27 11:28:53;;;;;;;3.28;0.80;;;;;;;18.18;30.82;101512.69;6221955;23;20058;-72
2022/04/27 11:31:19;;;;;;;0.98;0.50;;;;;;;18.18;31.05;101515.47;6247392;23;20008;-71
2022/04/27 11:33:45;;;;;;;2.78;0.90;;;;;;;18.43;30.54;101521.88;6248886;23;20035;-71
2022/04/27 11:36:21;;;;;;;1.67;0.65;;;;;;;18.67;30.71;101525.50;6243722;23;20498;-71
2022/04/27 11:38:47;;;;;;;1.35;0.70;;;;;;;19.00;30.54;101522.91;6219315;23;20004;-71
2022/04/27 11:41:14;;;;;;;1.95;0.85;;;;;;;19.12;30.18;101513.34;6247228;23;20031;-72
2022/04/27 11:43:40;;;;;;;1.98;0.98;;;;;;;18.96;30.20;101509.94;6247203;23;20000;-71
2022/04/27 11:46:08;;;;;;;0.90;0.60;;;;;;;18.76;30.47;101510.97;6216648;23;20035;-72
2022/04/27 11:48:33;;;;;;;3.38;0.70;;;;;;;18.76;30.22;101513.75;6212820;23;20016;-71
2022/04/27 11:51:03;;;;;;;0.82;0.57;;;;;;;19.00;30.48;101502.69;6244963;23;20012;-73
2022/04/27 11:53:28;;;;;;;1.38;0.57;;;;;;;19.46;30.10;101507.56;6249733;23;20022;-73
2022/04/27 11:55:55;;;;;;;1.15;0.80;;;;;;;19.95;29.11;101507.44;6237428;23;20412;-71
2022/04/27 11:58:30;;;;;;;1.17;0.47;;;;;;;20.17;28.64;101499.25;6219718;23;20063;-70
2022/04/27 12:01:00;;;;;;;4.55;0.60;;;;;;;21.04;28.05;101502.31;6269409;22;20075;-78
2022/04/27 12:03:26;;;;;;;1.05;0.70;;;;;;;21.10;26.88;101514.97;6283931;22;20053;-77
2022/04/27 12:05:53;;;;;;;4.32;0.98;;;;;;;20.84;27.24;101499.97;6284703;22;20004;-77
2022/04/27 12:08:21;;;;;;;1.50;0.70;;;;;;;20.58;27.68;101501.25;6285251;22;20493;-78
2022/04/27 12:10:49;;;;;;;1.00;0.68;;;;;;;20.37;27.50;101514.72;6281393;22;20007;-78
2022/04/27 12:13:16;;;;;;;5.00;1.00;;;;;;;20.53;27.14;101500.53;6257206;22;20434;-78